Dallas/Fort Worth (DFW/KDFW)

Information

Location
Dallas/Fort Worth, TX
Local Time
17:30 / 5:30 pm
GMT Time
22:30 / 10:30 pm
Gates
Unassigned
No FAA reported delays
METAR KDFW 272153Z 01007KT 10SM CLR 22/13 A2986 RMK AO2 SLP104 T02220128
TAF KDFW 272103Z 2721/2824 33012KT P6SM FEW250 FM280100 05006KT P6SM FEW250 FM280900 08007KT P6SM SCT250 FM281000 09007KT P6SM -RA BKN015 BKN250 FM281500 13010KT P6SM -RA BKN008 FM282100 01010KT P6SM VCTS BKN030CB
  • No charts available